Time;durP1;ratioP1;P1;durP2;ratioP2;P2;SDS_P1;SDS_P2;PMS_P1;PMS_P2;Temp;Humidity;BMP_temperature;BMP_pressure;BME280_temperature;BME280_humidity;BME280_pressure;Samples;Min_cycle;Max_cycle;Signal;HPM_P1;HPM_P2
2022/05/06 00:01:54;;;;;;;4.90;3.55;;;;;;;;;;5091896;28;20478;-89
2022/05/06 00:04:19;;;;;;;4.63;3.47;;;;;;;;;;5091609;28;20081;-89
2022/05/06 00:06:45;;;;;;;4.80;3.55;;;;;;;;;;5091848;28;20035;-89
2022/05/06 00:09:11;;;;;;;5.28;3.38;;;;;;;;;;5092789;28;20464;-89
2022/05/06 00:11:36;;;;;;;4.13;3.63;;;;;;;;;;5091461;28;20027;-90
2022/05/06 00:14:02;;;;;;;6.15;3.38;;;;;;;;;;5091581;28;20031;-90
2022/05/06 00:16:28;;;;;;;4.55;3.28;;;;;;;;;;5093050;28;20028;-89
2022/05/06 00:18:54;;;;;;;6.47;3.25;;;;;;;;;;5091661;28;20050;-90
2022/05/06 00:21:20;;;;;;;5.57;3.28;;;;;;;;;;5091659;28;20055;-88
2022/05/06 00:23:46;;;;;;;5.00;3.95;;;;;;;;;;5091755;28;20039;-91
2022/05/06 00:26:12;;;;;;;6.28;4.50;;;;;;;;;;5091924;28;20028;-89
2022/05/06 00:28:38;;;;;;;5.22;3.75;;;;;;;;;;5090594;28;20403;-90
2022/05/06 00:31:06;;;;;;;6.75;4.40;;;;;;;;;;5091407;28;20078;-90
2022/05/06 00:33:32;;;;;;;6.60;4.82;;;;;;;;;;5092766;28;20024;-91
2022/05/06 00:35:59;;;;;;;6.20;4.43;;;;;;;;;;5091553;28;20035;-90
2022/05/06 00:38:25;;;;;;;6.53;4.18;;;;;;;;;;5091560;28;20043;-89
2022/05/06 00:40:52;;;;;;;5.82;4.40;;;;;;;;;;5092893;28;20028;-91
2022/05/06 00:43:18;;;;;;;6.28;3.67;;;;;;;;;;5091739;28;20023;-89
2022/05/06 00:45:52;;;;;;;4.10;3.08;;;;;;;;;;5091422;28;20544;-89
2022/05/06 00:48:18;;;;;;;4.30;3.55;;;;;;;;;;5092828;28;20031;-91
2022/05/06 00:50:45;;;;;;;5.28;3.65;;;;;;;;;;5093840;28;20494;-91
2022/05/06 00:53:11;;;;;;;5.85;3.60;;;;;;;;;;5092197;28;20384;-91
2022/05/06 00:55:37;;;;;;;4.07;3.42;;;;;;;;;;5092996;28;20474;-90
2022/05/06 00:58:03;;;;;;;6.20;3.53;;;;;;;;;;5092738;28;20076;-90
2022/05/06 01:00:29;;;;;;;4.57;3.28;;;;;;;;;;5092078;28;20502;-90
2022/05/06 01:02:55;;;;;;;5.47;3.47;;;;;;;;;;5092500;28;20483;-87
2022/05/06 01:05:24;;;;;;;5.80;3.70;;;;;;;;;;5093055;28;20023;-92
2022/05/06 01:07:51;;;;;;;4.43;3.30;;;;;;;;;;5092147;28;20478;-89
2022/05/06 01:10:18;;;;;;;3.88;3.35;;;;;;;;;;5094040;28;20024;-89
2022/05/06 01:12:44;;;;;;;4.63;3.30;;;;;;;;;;5091813;28;20506;-90
2022/05/06 01:15:22;;;;;;;5.25;3.95;;;;;;;;;;5095261;28;20051;-90
2022/05/06 01:17:49;;;;;;;5.25;3.67;;;;;;;;;;5094369;28;20020;-91
2022/05/06 01:20:16;;;;;;;4.60;3.90;;;;;;;;;;5095538;28;20032;-90
2022/05/06 01:22:50;;;;;;;4.20;3.60;;;;;;;;;;5094206;28;20039;-90
2022/05/06 01:25:16;;;;;;;3.83;3.22;;;;;;;;;;5094472;28;20028;-87
2022/05/06 01:27:45;;;;;;;3.72;3.00;;;;;;;;;;5093323;28;20023;-90
2022/05/06 01:30:42;;;;;;;5.35;3.35;;;;;;;;;;5092177;28;20028;-86
2022/05/06 01:33:10;;;;;;;4.45;3.38;;;;;;;;;;5091447;28;20487;-88
2022/05/06 01:35:42;;;;;;;5.60;3.70;;;;;;;;;;5095669;28;20032;-90
2022/05/06 01:38:09;;;;;;;5.70;3.80;;;;;;;;;;5095289;28;20040;-91
2022/05/06 01:40:47;;;;;;;4.72;3.47;;;;;;;;;;5095790;28;20036;-90
2022/05/06 01:43:15;;;;;;;7.78;3.15;;;;;;;;;;5094811;28;20024;-90
2022/05/06 01:45:47;;;;;;;4.30;3.60;;;;;;;;;;5095728;28;20058;-89
2022/05/06 01:48:16;;;;;;;4.30;3.50;;;;;;;;;;5093779;28;20430;-90
2022/05/06 01:50:44;;;;;;;7.05;3.92;;;;;;;;;;5094715;28;20121;-90
2022/05/06 01:53:10;;;;;;;4.75;4.22;;;;;;;;;;5094245;28;20104;-90
2022/05/06 01:55:36;;;;;;;4.57;3.22;;;;;;;;;;5093783;28;20060;-88
2022/05/06 01:58:06;;;;;;;4.85;3.60;;;;;;;;;;5091072;28;20111;-89
2022/05/06 02:00:34;;;;;;;4.70;3.63;;;;;;;;;;5086785;28;20024;-90
2022/05/06 02:03:00;;;;;;;4.50;3.33;;;;;;;;;;5094647;28;20026;-90
2022/05/06 02:05:25;;;;;;;4.82;3.25;;;;;;;;;;5093881;28;20450;-91
2022/05/06 02:07:52;;;;;;;5.15;3.40;;;;;;;;;;5094081;28;20560;-89
2022/05/06 02:10:20;;;;;;;4.32;3.53;;;;;;;;;;5093541;28;20020;-90
2022/05/06 02:12:46;;;;;;;4.15;3.65;;;;;;;;;;5090110;28;20036;-89
2022/05/06 02:15:13;;;;;;;7.30;4.50;;;;;;;;;;5094224;28;20028;-90
2022/05/06 02:17:39;;;;;;;4.28;3.72;;;;;;;;;;5092165;28;20090;-91
2022/05/06 02:20:07;;;;;;;4.00;3.60;;;;;;;;;;5094472;28;20115;-89
2022/05/06 02:22:33;;;;;;;5.53;4.10;;;;;;;;;;5126881;27;20034;-90
2022/05/06 02:24:59;;;;;;;4.38;3.22;;;;;;;;;;5093749;28;20075;-90
2022/05/06 02:27:24;;;;;;;5.75;3.80;;;;;;;;;;5093682;28;20028;-90
2022/05/06 02:35:19;;;;;;;5.00;3.90;;;;;;;;;;5095296;28;20047;-90
2022/05/06 02:37:44;;;;;;;9.77;4.38;;;;;;;;;;5093020;28;20475;-90
2022/05/06 02:40:11;;;;;;;5.57;3.72;;;;;;;;;;5094238;28;20016;-88
2022/05/06 02:42:37;;;;;;;6.68;4.10;;;;;;;;;;5094008;28;20468;-89
2022/05/06 02:45:03;;;;;;;5.90;4.30;;;;;;;;;;5092644;28;20024;-89
2022/05/06 02:47:29;;;;;;;5.18;3.80;;;;;;;;;;5093101;28;20454;-89
2022/05/06 02:49:59;;;;;;;5.28;4.47;;;;;;;;;;5092934;28;20107;-88
2022/05/06 02:52:25;;;;;;;5.00;4.00;;;;;;;;;;5093019;28;20043;-89
2022/05/06 02:54:50;;;;;;;4.93;4.28;;;;;;;;;;5092548;28;20046;-89
2022/05/06 02:57:16;;;;;;;6.13;4.45;;;;;;;;;;5092484;28;20024;-88
2022/05/06 02:59:41;;;;;;;5.88;4.30;;;;;;;;;;5094331;28;20877;-89
2022/05/06 03:02:07;;;;;;;5.78;4.65;;;;;;;;;;5094014;28;20035;-88
2022/05/06 03:04:33;;;;;;;6.90;4.50;;;;;;;;;;5091731;28;20028;-89
2022/05/06 03:06:59;;;;;;;6.90;4.40;;;;;;;;;;5094283;28;20024;-88
2022/05/06 03:09:25;;;;;;;5.18;4.28;;;;;;;;;;5093831;28;20074;-89
2022/05/06 03:11:51;;;;;;;7.22;4.25;;;;;;;;;;5092252;28;20509;-88
2022/05/06 03:14:16;;;;;;;5.75;4.63;;;;;;;;;;5093778;28;20024;-89
2022/05/06 03:16:42;;;;;;;8.15;4.47;;;;;;;;;;5092347;28;20039;-90
2022/05/06 03:19:07;;;;;;;5.15;4.40;;;;;;;;;;5092458;28;20035;-89
2022/05/06 03:21:34;;;;;;;7.13;4.38;;;;;;;;;;5092026;28;20031;-89
2022/05/06 03:24:00;;;;;;;7.05;4.47;;;;;;;;;;5093157;28;20038;-89
2022/05/06 03:26:25;;;;;;;6.78;4.47;;;;;;;;;;5092132;28;20024;-89
2022/05/06 03:28:57;;;;;;;5.28;4.07;;;;;;;;;;5091113;28;20677;-89
2022/05/06 03:31:23;;;;;;;4.50;4.05;;;;;;;;;;5092080;28;20472;-89
2022/05/06 03:33:49;;;;;;;5.15;4.35;;;;;;;;;;5091786;28;20044;-89
2022/05/06 03:36:15;;;;;;;5.90;4.55;;;;;;;;;;5093454;28;20032;-89
2022/05/06 03:38:41;;;;;;;5.82;4.30;;;;;;;;;;5092337;28;20040;-90
2022/05/06 03:41:06;;;;;;;5.40;4.90;;;;;;;;;;5094367;28;20032;-90
2022/05/06 03:43:32;;;;;;;6.57;5.13;;;;;;;;;;5093143;28;20050;-90
2022/05/06 03:45:57;;;;;;;5.70;4.93;;;;;;;;;;5093103;28;20093;-89
2022/05/06 03:48:24;;;;;;;5.90;4.65;;;;;;;;;;5094181;28;20024;-89
2022/05/06 03:53:38;;;;;;;10.07;4.97;;;;;;;;;;5094725;28;20042;-91
2022/05/06 03:56:04;;;;;;;6.10;4.85;;;;;;;;;;5094402;28;20099;-91
2022/05/06 03:58:31;;;;;;;7.50;5.13;;;;;;;;;;5093289;28;20059;-89
2022/05/06 04:00:57;;;;;;;6.78;5.03;;;;;;;;;;5092584;28;20039;-89
2022/05/06 04:03:22;;;;;;;8.25;4.60;;;;;;;;;;5091166;28;20036;-89
2022/05/06 04:05:48;;;;;;;10.32;5.30;;;;;;;;;;5093166;28;20508;-90
2022/05/06 04:08:13;;;;;;;6.65;5.30;;;;;;;;;;5092896;28;20084;-89
2022/05/06 04:10:39;;;;;;;6.38;5.47;;;;;;;;;;5091363;28;20510;-89
2022/05/06 04:13:04;;;;;;;6.65;4.95;;;;;;;;;;5091497;28;20027;-89
2022/05/06 04:15:32;;;;;;;6.47;5.40;;;;;;;;;;5093257;28;20028;-90
2022/05/06 04:17:59;;;;;;;6.82;5.30;;;;;;;;;;5093245;28;20102;-91
2022/05/06 04:25:52;;;;;;;8.82;5.50;;;;;;;;;;5093066;28;20080;-89
2022/05/06 04:28:18;;;;;;;7.50;4.78;;;;;;;;;;5091687;28;20020;-90
2022/05/06 04:30:43;;;;;;;9.25;6.97;;;;;;;;;;5090996;28;20069;-87
2022/05/06 04:33:08;;;;;;;10.07;8.27;;;;;;;;;;5087931;28;20098;-89
2022/05/06 04:35:34;;;;;;;9.43;7.68;;;;;;;;;;5091833;28;20032;-88
2022/05/06 04:38:00;;;;;;;10.02;8.00;;;;;;;;;;5091763;28;20059;-87
2022/05/06 04:40:26;;;;;;;10.68;8.50;;;;;;;;;;5090730;28;20028;-88
2022/05/06 04:42:52;;;;;;;12.50;8.85;;;;;;;;;;5090286;28;20032;-88
2022/05/06 04:45:17;;;;;;;14.00;9.25;;;;;;;;;;5089324;28;20027;-87
2022/05/06 04:47:42;;;;;;;12.45;8.50;;;;;;;;;;5089573;28;20105;-87
2022/05/06 04:50:08;;;;;;;10.52;8.57;;;;;;;;;;5091035;28;20032;-87
2022/05/06 04:52:34;;;;;;;12.93;8.88;;;;;;;;;;5090766;28;20036;-87
2022/05/06 04:54:59;;;;;;;13.15;9.45;;;;;;;;;;5090472;28;20448;-86
2022/05/06 04:57:25;;;;;;;15.10;10.18;;;;;;;;;;5090284;28;20028;-87
2022/05/06 04:59:50;;;;;;;11.88;9.85;;;;;;;;;;5090364;28;20472;-87
2022/05/06 05:02:16;;;;;;;12.30;9.52;;;;;;;;;;5089928;28;20028;-86
2022/05/06 05:04:43;;;;;;;14.80;9.80;;;;;;;;;;5090371;28;20070;-86
2022/05/06 05:07:09;;;;;;;12.25;9.90;;;;;;;;;;5090192;28;20055;-86
2022/05/06 05:09:35;;;;;;;12.65;10.25;;;;;;;;;;5090016;28;20072;-87
2022/05/06 05:12:00;;;;;;;12.38;9.43;;;;;;;;;;5090055;28;20031;-86
2022/05/06 05:14:25;;;;;;;12.00;9.07;;;;;;;;;;5084422;28;20028;-87
2022/05/06 05:16:51;;;;;;;11.73;8.93;;;;;;;;;;5090316;28;20081;-89
2022/05/06 05:19:17;;;;;;;13.48;8.82;;;;;;;;;;5090712;28;20024;-88
2022/05/06 05:21:42;;;;;;;12.95;9.50;;;;;;;;;;5089681;28;20024;-88
2022/05/06 05:24:09;;;;;;;12.82;10.07;;;;;;;;;;5090681;28;20027;-89
2022/05/06 05:26:34;;;;;;;12.85;9.88;;;;;;;;;;5090295;28;20169;-88
2022/05/06 05:29:00;;;;;;;12.60;9.93;;;;;;;;;;5088572;28;20115;-87
2022/05/06 05:31:26;;;;;;;10.88;8.90;;;;;;;;;;5091647;28;20035;-86
2022/05/06 05:33:52;;;;;;;11.70;9.32;;;;;;;;;;5090007;28;20395;-89
2022/05/06 05:36:18;;;;;;;15.07;9.63;;;;;;;;;;5091409;28;20108;-87
2022/05/06 05:38:44;;;;;;;12.30;9.30;;;;;;;;;;5089480;28;20032;-87
2022/05/06 05:41:10;;;;;;;11.40;8.88;;;;;;;;;;5087045;28;20396;-86
2022/05/06 05:49:03;;;;;;;11.27;10.07;;;;;;;;;;5091546;28;20088;-88
2022/05/06 05:51:29;;;;;;;13.52;11.05;;;;;;;;;;5090892;28;20115;-88
2022/05/06 05:53:54;;;;;;;12.20;10.40;;;;;;;;;;5094098;28;20030;-87
2022/05/06 05:56:20;;;;;;;12.02;10.00;;;;;;;;;;5094472;28;20028;-88
2022/05/06 05:58:45;;;;;;;15.18;11.38;;;;;;;;;;5095318;28;20106;-88
2022/05/06 06:01:11;;;;;;;12.88;9.98;;;;;;;;;;5095210;28;20020;-89
2022/05/06 06:03:37;;;;;;;12.25;10.25;;;;;;;;;;5094247;28;20509;-89
2022/05/06 06:06:03;;;;;;;13.77;9.48;;;;;;;;;;5088490;28;20024;-87
2022/05/06 06:08:29;;;;;;;12.27;9.57;;;;;;;;;;5094140;28;20024;-90
2022/05/06 06:10:54;;;;;;;12.30;9.35;;;;;;;;;;5095677;28;20027;-92
2022/05/06 06:13:20;;;;;;;10.18;8.45;;;;;;;;;;5094897;28;20028;-90
2022/05/06 06:15:45;;;;;;;9.73;7.97;;;;;;;;;;5095988;28;20036;-91
2022/05/06 06:18:11;;;;;;;13.82;8.75;;;;;;;;;;5096073;28;20411;-89
2022/05/06 06:20:40;;;;;;;13.73;9.10;;;;;;;;;;5093986;28;20056;-89
2022/05/06 06:23:05;;;;;;;11.88;8.45;;;;;;;;;;5094786;28;20116;-87
2022/05/06 06:25:31;;;;;;;10.73;8.52;;;;;;;;;;5093411;28;20062;-90
2022/05/06 06:27:56;;;;;;;12.60;8.55;;;;;;;;;;5093538;28;20441;-87
2022/05/06 06:30:22;;;;;;;12.00;8.27;;;;;;;;;;5093325;28;20501;-88
2022/05/06 06:32:50;;;;;;;11.48;8.68;;;;;;;;;;5093420;28;20032;-88
2022/05/06 06:35:15;;;;;;;9.90;7.57;;;;;;;;;;5094625;28;20027;-88
2022/05/06 06:37:41;;;;;;;13.60;8.55;;;;;;;;;;5094666;28;20046;-90
2022/05/06 06:40:07;;;;;;;11.13;8.55;;;;;;;;;;5094689;28;20070;-89
2022/05/06 06:42:32;;;;;;;10.95;8.30;;;;;;;;;;5092863;28;20085;-87
2022/05/06 06:44:58;;;;;;;10.88;7.90;;;;;;;;;;5093853;28;20024;-88
2022/05/06 06:47:24;;;;;;;8.57;7.22;;;;;;;;;;5094236;28;20097;-89
2022/05/06 06:49:49;;;;;;;8.95;6.68;;;;;;;;;;5094331;28;20447;-89
2022/05/06 06:52:15;;;;;;;7.68;6.63;;;;;;;;;;5092901;28;20450;-87
2022/05/06 06:54:43;;;;;;;11.68;6.50;;;;;;;;;;5093698;28;20024;-88
2022/05/06 06:57:09;;;;;;;9.82;6.43;;;;;;;;;;5092222;28;20434;-86
2022/05/06 06:59:34;;;;;;;9.45;6.60;;;;;;;;;;5092708;28;20032;-87
2022/05/06 07:02:01;;;;;;;9.95;6.85;;;;;;;;;;5092708;28;20111;-87
2022/05/06 07:04:26;;;;;;;6.70;6.03;;;;;;;;;;5093868;28;20028;-91
2022/05/06 07:12:20;;;;;;;8.73;6.50;;;;;;;;;;5091214;28;20042;-89
2022/05/06 07:14:45;;;;;;;10.25;7.93;;;;;;;;;;5092240;28;20402;-90
2022/05/06 07:17:10;;;;;;;10.70;8.55;;;;;;;;;;5092604;28;20023;-88
2022/05/06 07:19:36;;;;;;;17.70;10.85;;;;;;;;;;5094029;28;20049;-88
2022/05/06 07:22:02;;;;;;;25.90;14.25;;;;;;;;;;5091852;28;20028;-86
2022/05/06 07:24:27;;;;;;;16.77;10.75;;;;;;;;;;5091979;28;20069;-88
2022/05/06 07:26:54;;;;;;;14.73;9.55;;;;;;;;;;5092687;28;20491;-88
2022/05/06 07:29:20;;;;;;;13.50;8.75;;;;;;;;;;5093149;28;20063;-87
2022/05/06 07:31:45;;;;;;;20.90;11.57;;;;;;;;;;5091663;28;20024;-90
2022/05/06 07:34:11;;;;;;;21.35;11.93;;;;;;;;;;5091732;28;20028;-88
2022/05/06 07:36:41;;;;;;;12.10;8.65;;;;;;;;;;5091555;28;20023;-89
2022/05/06 07:39:11;;;;;;;12.52;8.20;;;;;;;;;;5091748;28;20028;-87
2022/05/06 07:41:36;;;;;;;17.15;9.40;;;;;;;;;;5092770;28;20078;-88
2022/05/06 07:44:02;;;;;;;11.73;8.07;;;;;;;;;;5092192;28;20020;-85
2022/05/06 07:46:28;;;;;;;11.45;7.30;;;;;;;;;;5091846;28;20445;-86
2022/05/06 07:48:53;;;;;;;25.20;14.88;;;;;;;;;;5091414;28;20489;-84
2022/05/06 07:51:19;;;;;;;9.48;6.75;;;;;;;;;;5091603;28;20032;-85
2022/05/06 07:53:44;;;;;;;8.80;7.05;;;;;;;;;;5092892;28;20032;-88
2022/05/06 07:56:11;;;;;;;11.00;8.27;;;;;;;;;;5091596;28;20501;-86
2022/05/06 07:58:39;;;;;;;15.95;10.07;;;;;;;;;;5091475;28;20112;-85
2022/05/06 08:01:06;;;;;;;9.73;7.05;;;;;;;;;;5091302;28;20104;-86
2022/05/06 08:06:17;;;;;;;11.77;6.82;;;;;;;;;;5092028;28;20428;-87
2022/05/06 08:08:42;;;;;;;12.23;8.55;;;;;;;;;;5091083;28;20044;-86
2022/05/06 08:11:08;;;;;;;8.98;7.03;;;;;;;;;;5091034;28;20066;-88
2022/05/06 08:13:33;;;;;;;12.27;7.47;;;;;;;;;;5091535;28;20028;-88
2022/05/06 08:15:59;;;;;;;7.28;6.20;;;;;;;;;;5090656;28;20027;-88
2022/05/06 08:18:25;;;;;;;9.18;6.53;;;;;;;;;;5090689;28;20042;-88
2022/05/06 08:20:54;;;;;;;8.07;6.05;;;;;;;;;;5090412;28;20024;-91
2022/05/06 08:23:23;;;;;;;6.85;5.68;;;;;;;;;;5089932;28;20482;-89
2022/05/06 08:25:52;;;;;;;7.13;5.97;;;;;;;;;;5090893;28;20027;-88
2022/05/06 08:28:19;;;;;;;7.82;5.97;;;;;;;;;;5092019;28;20024;-86
2022/05/06 08:30:47;;;;;;;7.80;5.68;;;;;;;;;;5091917;28;20024;-86
2022/05/06 08:33:21;;;;;;;7.38;5.75;;;;;;;;;;5092866;28;20376;-89
2022/05/06 08:35:47;;;;;;;6.72;5.57;;;;;;;;;;5094141;28;20031;-88
2022/05/06 08:38:14;;;;;;;6.90;5.47;;;;;;;;;;5095151;28;20040;-90
2022/05/06 08:40:40;;;;;;;6.18;5.57;;;;;;;;;;5094425;28;20459;-90
2022/05/06 08:43:05;;;;;;;5.70;5.03;;;;;;;;;;5094558;28;20028;-87
2022/05/06 08:51:03;;;;;;;6.55;5.00;;;;;;;;;;5088339;28;20040;-88
2022/05/06 08:53:31;;;;;;;6.88;4.90;;;;;;;;;;5090930;28;20067;-86
2022/05/06 08:55:59;;;;;;;5.40;4.53;;;;;;;;;;5091510;28;20028;-83
2022/05/06 08:58:26;;;;;;;8.70;4.90;;;;;;;;;;5087578;28;20704;-85
2022/05/06 09:01:02;;;;;;;5.63;4.57;;;;;;;;;;5088260;28;20047;-85
2022/05/06 09:03:27;;;;;;;7.13;5.05;;;;;;;;;;5085948;28;20070;-84
2022/05/06 09:05:57;;;;;;;5.85;4.85;;;;;;;;;;5086399;28;20052;-84
2022/05/06 09:08:22;;;;;;;6.68;5.15;;;;;;;;;;5089181;28;20016;-84
2022/05/06 09:11:04;;;;;;;5.80;4.72;;;;;;;;;;5090298;28;20024;-84
2022/05/06 09:13:31;;;;;;;8.50;4.93;;;;;;;;;;5081853;28;20534;-84
2022/05/06 09:16:40;;;;;;;5.00;4.07;;;;;;;;;;5085869;28;20085;-83
2022/05/06 09:19:27;;;;;;;6.70;4.90;;;;;;;;;;5089354;28;20096;-83
2022/05/06 09:21:59;;;;;;;5.43;4.93;;;;;;;;;;5084359;28;20039;-82
2022/05/06 09:24:27;;;;;;;5.40;4.90;;;;;;;;;;5085028;28;20032;-83
2022/05/06 09:26:58;;;;;;;6.28;4.43;;;;;;;;;;5087195;28;20027;-87
2022/05/06 09:29:54;;;;;;;5.95;4.53;;;;;;;;;;5093923;28;20043;-88
2022/05/06 09:32:27;;;;;;;5.88;4.20;;;;;;;;;;5089008;28;20159;-82
2022/05/06 09:34:57;;;;;;;5.10;4.40;;;;;;;;;;5092114;28;20422;-82
2022/05/06 09:37:33;;;;;;;6.00;4.20;;;;;;;;;;5094190;28;20036;-87
2022/05/06 09:40:07;;;;;;;4.40;4.00;;;;;;;;;;5093140;28;20024;-87
2022/05/06 09:42:33;;;;;;;4.75;3.97;;;;;;;;;;5093412;28;20036;-88
2022/05/06 09:45:00;;;;;;;4.28;3.45;;;;;;;;;;5094880;28;20054;-87
2022/05/06 09:47:26;;;;;;;4.63;3.63;;;;;;;;;;5092905;28;20103;-87
2022/05/06 09:49:53;;;;;;;3.95;3.47;;;;;;;;;;5092860;28;20571;-87
2022/05/06 09:52:19;;;;;;;4.75;3.60;;;;;;;;;;5094418;28;20371;-87
2022/05/06 09:54:46;;;;;;;4.45;3.72;;;;;;;;;;5093718;28;20379;-87
2022/05/06 09:57:15;;;;;;;4.82;3.45;;;;;;;;;;5094262;28;20475;-89
2022/05/06 09:59:41;;;;;;;3.42;3.13;;;;;;;;;;5092806;28;20785;-85
2022/05/06 10:02:08;;;;;;;4.13;3.30;;;;;;;;;;5094232;28;20028;-87
2022/05/06 10:04:37;;;;;;;4.93;3.88;;;;;;;;;;5091844;28;20036;-87
2022/05/06 10:07:11;;;;;;;4.20;3.80;;;;;;;;;;5092016;28;20024;-87
2022/05/06 10:09:44;;;;;;;4.03;3.63;;;;;;;;;;5094627;28;20046;-88
2022/05/06 10:12:11;;;;;;;4.15;3.38;;;;;;;;;;5092322;28;20028;-86
2022/05/06 10:14:39;;;;;;;4.95;4.20;;;;;;;;;;5093702;28;20337;-88
2022/05/06 10:17:05;;;;;;;3.90;3.50;;;;;;;;;;5094590;28;20030;-89
2022/05/06 10:19:37;;;;;;;5.65;3.92;;;;;;;;;;5092059;28;20395;-87
2022/05/06 10:46:11;;;;;;;6.60;3.72;;;;;;;;;;4883411;28;20116;-87
2022/05/06 10:48:37;;;;;;;6.78;4.93;;;;;;;;;;5013852;28;20047;-85
2022/05/06 10:51:22;;;;;;;8.15;5.75;;;;;;;;;;5114471;28;20050;-87
2022/05/06 10:53:48;;;;;;;5.05;3.97;;;;;;;;;;5104452;28;20027;-86
2022/05/06 10:56:14;;;;;;;5.95;4.75;;;;;;;;;;5092069;28;20023;-87
2022/05/06 10:58:41;;;;;;;5.25;4.35;;;;;;;;;;5097340;28;20023;-88
2022/05/06 11:01:14;;;;;;;5.85;4.25;;;;;;;;;;5097838;28;20039;-88
2022/05/06 11:03:53;;;;;;;8.00;3.90;;;;;;;;;;5091803;28;20035;-90
2022/05/06 11:06:22;;;;;;;5.28;3.50;;;;;;;;;;5095570;28;20043;-86
2022/05/06 11:08:48;;;;;;;5.97;4.35;;;;;;;;;;5112872;28;20368;-88
2022/05/06 11:11:19;;;;;;;5.25;4.15;;;;;;;;;;5085923;28;20039;-87
2022/05/06 11:13:47;;;;;;;9.52;6.30;;;;;;;;;;5111344;28;20077;-89
2022/05/06 11:16:14;;;;;;;11.95;5.30;;;;;;;;;;5094218;28;20360;-86
2022/05/06 11:18:43;;;;;;;7.55;4.13;;;;;;;;;;5092964;28;20023;-88
2022/05/06 11:21:31;;;;;;;5.38;3.63;;;;;;;;;;5081670;28;20154;-87
2022/05/06 11:23:56;;;;;;;7.97;3.65;;;;;;;;;;5109214;28;20108;-88
2022/05/06 11:26:30;;;;;;;4.80;3.65;;;;;;;;;;5094891;28;20107;-89
2022/05/06 11:29:03;;;;;;;6.18;4.18;;;;;;;;;;5094440;28;20502;-87
2022/05/06 11:31:29;;;;;;;4.03;3.58;;;;;;;;;;5112876;28;20054;-90
2022/05/06 11:33:59;;;;;;;4.45;3.92;;;;;;;;;;5094325;28;20027;-86
2022/05/06 11:36:24;;;;;;;7.43;5.38;;;;;;;;;;5093610;28;20066;-89
2022/05/06 11:38:50;;;;;;;4.38;3.97;;;;;;;;;;5105148;28;20051;-88
2022/05/06 11:41:17;;;;;;;5.18;4.30;;;;;;;;;;5111571;28;20023;-90
2022/05/06 11:43:44;;;;;;;5.43;4.05;;;;;;;;;;5074554;28;20131;-87
2022/05/06 11:49:02;;;;;;;4.40;3.97;;;;;;;;;;5089916;28;20077;-87
2022/05/06 11:51:35;;;;;;;4.63;3.05;;;;;;;;;;5091176;28;20028;-86
2022/05/06 11:54:01;;;;;;;4.40;2.97;;;;;;;;;;5070759;28;20046;-86
2022/05/06 11:56:28;;;;;;;4.35;3.50;;;;;;;;;;5072937;28;20384;-84
2022/05/06 11:58:57;;;;;;;3.70;3.00;;;;;;;;;;5092490;28;20020;-88
2022/05/06 12:01:30;;;;;;;4.53;3.20;;;;;;;;;;5090973;28;20028;-88
2022/05/06 12:04:03;;;;;;;7.55;3.30;;;;;;;;;;5072526;28;20455;-87
2022/05/06 12:06:31;;;;;;;4.78;3.38;;;;;;;;;;5090743;28;20028;-87
2022/05/06 12:09:06;;;;;;;3.75;2.85;;;;;;;;;;5091292;28;20016;-88
2022/05/06 12:11:32;;;;;;;4.85;3.50;;;;;;;;;;5087594;28;20028;-86
2022/05/06 12:14:04;;;;;;;4.60;3.00;;;;;;;;;;5071893;28;20043;-87
2022/05/06 12:16:30;;;;;;;3.40;2.90;;;;;;;;;;5091004;28;20379;-85
2022/05/06 12:18:58;;;;;;;4.50;2.80;;;;;;;;;;5084659;28;20024;-87
2022/05/06 12:21:26;;;;;;;4.78;2.65;;;;;;;;;;5072156;28;20119;-87
2022/05/06 12:23:54;;;;;;;3.28;2.38;;;;;;;;;;5087522;28;20027;-87
2022/05/06 12:26:54;;;;;;;4.40;2.53;;;;;;;;;;5089573;28;20097;-87
2022/05/06 12:29:21;;;;;;;2.97;2.50;;;;;;;;;;5089559;28;20024;-85
2022/05/06 12:31:48;;;;;;;3.25;2.92;;;;;;;;;;5090174;28;20495;-86
2022/05/06 12:34:14;;;;;;;2.95;2.35;;;;;;;;;;5086591;28;20028;-86
2022/05/06 12:36:40;;;;;;;4.65;2.75;;;;;;;;;;5090142;28;20108;-87
2022/05/06 12:39:19;;;;;;;4.85;3.10;;;;;;;;;;5088958;28;20020;-83
2022/05/06 12:41:45;;;;;;;3.47;2.47;;;;;;;;;;5073594;28;20666;-85
2022/05/06 12:44:21;;;;;;;5.30;2.60;;;;;;;;;;5092201;28;20051;-88
2022/05/06 12:46:48;;;;;;;3.08;2.35;;;;;;;;;;5083197;28;20126;-88
2022/05/06 12:52:00;;;;;;;2.92;2.25;;;;;;;;;;5095977;28;20133;-87
2022/05/06 12:54:26;;;;;;;2.63;2.10;;;;;;;;;;5104206;28;20547;-87
2022/05/06 12:56:53;;;;;;;3.90;2.80;;;;;;;;;;5102294;28;20020;-85
2022/05/06 12:59:19;;;;;;;3.40;2.38;;;;;;;;;;5091210;28;20081;-87
2022/05/06 13:01:44;;;;;;;4.38;2.45;;;;;;;;;;5111762;28;20418;-86
2022/05/06 13:04:10;;;;;;;2.65;1.63;;;;;;;;;;5093285;28;20030;-87
2022/05/06 13:06:36;;;;;;;4.93;2.17;;;;;;;;;;5109694;28;20020;-87
2022/05/06 13:09:02;;;;;;;2.47;1.77;;;;;;;;;;5102849;28;20498;-85
2022/05/06 13:11:28;;;;;;;2.95;2.03;;;;;;;;;;5107615;28;20100;-84
2022/05/06 13:13:54;;;;;;;3.80;2.15;;;;;;;;;;5105446;28;20028;-84
2022/05/06 13:16:20;;;;;;;3.33;2.20;;;;;;;;;;5108720;28;20023;-83
2022/05/06 13:18:48;;;;;;;2.78;1.98;;;;;;;;;;5088942;28;20522;-83
2022/05/06 13:21:13;;;;;;;3.13;2.00;;;;;;;;;;5101244;28;20047;-83
2022/05/06 13:23:42;;;;;;;2.90;1.95;;;;;;;;;;5095860;28;20479;-83
2022/05/06 13:26:08;;;;;;;5.47;2.10;;;;;;;;;;5111532;28;20111;-84
2022/05/06 13:28:34;;;;;;;3.35;2.20;;;;;;;;;;5100213;28;20463;-84
2022/05/06 13:30:59;;;;;;;3.50;1.65;;;;;;;;;;5095224;28;20039;-84
2022/05/06 13:33:25;;;;;;;5.15;2.30;;;;;;;;;;5096303;28;20030;-85
2022/05/06 13:35:51;;;;;;;2.70;1.92;;;;;;;;;;5095251;28;20031;-86
2022/05/06 13:38:16;;;;;;;2.33;1.85;;;;;;;;;;5100766;28;20147;-86
2022/05/06 13:40:42;;;;;;;2.53;2.03;;;;;;;;;;5116216;28;20034;-89
2022/05/06 13:43:07;;;;;;;2.60;1.92;;;;;;;;;;5107621;27;20098;-87
2022/05/06 13:45:36;;;;;;;2.28;1.77;;;;;;;;;;5135049;27;20471;-86
2022/05/06 13:48:02;;;;;;;4.40;2.03;;;;;;;;;;5136652;27;20029;-87
2022/05/06 13:50:27;;;;;;;3.83;1.77;;;;;;;;;;5137485;27;20073;-87
2022/05/06 13:52:53;;;;;;;2.63;2.00;;;;;;;;;;5136816;27;20459;-88
2022/05/06 13:55:18;;;;;;;2.65;1.60;;;;;;;;;;5115541;27;20022;-89
2022/05/06 14:00:32;;;;;;;2.35;1.83;;;;;;;;;;5133242;27;20096;-89
2022/05/06 14:03:04;;;;;;;1.97;1.57;;;;;;;;;;5134643;27;20031;-88
2022/05/06 14:05:29;;;;;;;3.50;1.60;;;;;;;;;;5115652;27;20031;-87
2022/05/06 14:08:00;;;;;;;2.20;1.75;;;;;;;;;;5115371;27;20382;-89
2022/05/06 14:10:26;;;;;;;3.65;1.65;;;;;;;;;;5114514;27;20035;-83
2022/05/06 14:12:51;;;;;;;2.80;2.00;;;;;;;;;;5132927;27;20114;-84
2022/05/06 14:15:17;;;;;;;2.80;2.10;;;;;;;;;;5115511;27;20404;-83
2022/05/06 14:17:42;;;;;;;3.17;1.98;;;;;;;;;;5115964;27;20038;-82
2022/05/06 14:20:08;;;;;;;3.05;2.25;;;;;;;;;;5112392;27;20019;-84
2022/05/06 14:22:34;;;;;;;5.72;2.10;;;;;;;;;;5114067;27;20056;-84
2022/05/06 14:24:59;;;;;;;2.80;2.10;;;;;;;;;;5112680;27;20022;-83
2022/05/06 14:27:25;;;;;;;3.78;2.00;;;;;;;;;;5133910;27;20031;-84
2022/05/06 14:29:50;;;;;;;4.20;2.40;;;;;;;;;;5127369;27;20095;-83
2022/05/06 14:32:16;;;;;;;2.55;2.00;;;;;;;;;;5133619;27;20027;-85
2022/05/06 14:34:41;;;;;;;3.47;2.58;;;;;;;;;;5113817;27;20363;-85
2022/05/06 14:37:10;;;;;;;3.55;2.30;;;;;;;;;;5114767;27;20466;-82
2022/05/06 14:39:37;;;;;;;3.60;2.10;;;;;;;;;;5133214;27;20029;-85
2022/05/06 14:42:03;;;;;;;3.38;1.80;;;;;;;;;;5114900;27;20069;-84
2022/05/06 14:44:28;;;;;;;2.13;1.60;;;;;;;;;;5131565;27;20057;-86
2022/05/06 14:46:54;;;;;;;2.75;1.88;;;;;;;;;;5113905;27;20475;-83
2022/05/06 14:49:19;;;;;;;2.60;1.80;;;;;;;;;;5130540;27;20424;-88
2022/05/06 14:51:45;;;;;;;2.75;1.50;;;;;;;;;;5112626;27;20126;-85
2022/05/06 14:54:10;;;;;;;3.00;1.85;;;;;;;;;;5111461;27;20033;-85
2022/05/06 14:56:35;;;;;;;3.00;1.70;;;;;;;;;;5134184;27;20378;-84
2022/05/06 14:59:05;;;;;;;2.10;1.58;;;;;;;;;;5133630;27;20023;-87
2022/05/06 15:01:32;;;;;;;;;;;;;;;;;;5133853;27;20022;-85
2022/05/06 15:03:57;;;;;;;2.67;1.70;;;;;;;;;;5134197;27;20266;-83
2022/05/06 15:06:23;;;;;;;2.08;1.50;;;;;;;;;;5131533;27;20023;-83
2022/05/06 15:08:48;;;;;;;3.25;1.50;;;;;;;;;;5129863;27;20076;-85
2022/05/06 15:11:14;;;;;;;2.45;1.60;;;;;;;;;;5113566;27;20159;-83
2022/05/06 15:13:39;;;;;;;2.20;1.60;;;;;;;;;;5114639;27;20023;-83
2022/05/06 15:16:06;;;;;;;3.75;1.70;;;;;;;;;;5112668;27;20034;-84
2022/05/06 15:21:16;;;;;;;3.67;2.00;;;;;;;;;;5132537;27;20042;-83
2022/05/06 15:23:48;;;;;;;5.00;2.22;;;;;;;;;;5130042;27;20391;-84
2022/05/06 15:26:15;;;;;;;2.78;1.80;;;;;;;;;;5133269;27;20019;-85
2022/05/06 15:28:41;;;;;;;2.90;1.95;;;;;;;;;;5130745;27;20517;-84
2022/05/06 15:31:08;;;;;;;2.95;2.00;;;;;;;;;;5130911;27;20023;-85
2022/05/06 15:33:33;;;;;;;2.40;1.55;;;;;;;;;;5130732;27;20039;-86
2022/05/06 15:36:00;;;;;;;4.07;2.10;;;;;;;;;;5133344;27;20370;-86
2022/05/06 15:38:26;;;;;;;2.53;1.60;;;;;;;;;;5133364;27;20087;-82
2022/05/06 15:40:53;;;;;;;2.75;2.00;;;;;;;;;;5131323;27;20534;-86
2022/05/06 15:43:19;;;;;;;3.55;1.80;;;;;;;;;;5111422;27;20045;-83
2022/05/06 15:45:45;;;;;;;5.30;1.95;;;;;;;;;;5133450;27;20023;-85
2022/05/06 15:48:11;;;;;;;2.95;1.80;;;;;;;;;;5114240;27;20474;-84
2022/05/06 15:50:37;;;;;;;2.25;1.80;;;;;;;;;;5114812;27;20041;-82